sensor_id;sensor_type;location;lat;lon;timestamp;temperature;humidity
30399;DHT22;17195;50.838;7.214;2022-11-15T00:00:44;9.90;99.90
30399;DHT22;17195;50.838;7.214;2022-11-15T00:03:09;10.00;99.90
30399;DHT22;17195;50.838;7.214;2022-11-15T00:05:35;10.00;99.90
30399;DHT22;17195;50.838;7.214;2022-11-15T00:08:01;10.00;99.90
30399;DHT22;17195;50.838;7.214;2022-11-15T00:10:27;10.00;99.90
30399;DHT22;17195;50.838;7.214;2022-11-15T00:12:52;10.00;99.90
30399;DHT22;17195;50.838;7.214;2022-11-15T00:15:18;10.00;99.90
30399;DHT22;17195;50.838;7.214;2022-11-15T00:17:43;10.00;99.90
30399;DHT22;17195;50.838;7.214;2022-11-15T00:20:09;10.00;99.90
30399;DHT22;17195;50.838;7.214;2022-11-15T00:22:35;10.00;99.90
30399;DHT22;17195;50.838;7.214;2022-11-15T00:25:00;10.00;99.90
30399;DHT22;17195;50.838;7.214;2022-11-15T00:27:27;10.10;99.90
30399;DHT22;17195;50.838;7.214;2022-11-15T00:29:52;10.10;99.90
30399;DHT22;17195;50.838;7.214;2022-11-15T00:32:18;10.00;99.90
30399;DHT22;17195;50.838;7.214;2022-11-15T00:34:44;10.10;99.90
30399;DHT22;17195;50.838;7.214;2022-11-15T00:37:09;10.10;99.90
30399;DHT22;17195;50.838;7.214;2022-11-15T00:39:35;10.20;99.90
30399;DHT22;17195;50.838;7.214;2022-11-15T00:42:00;10.30;99.90
30399;DHT22;17195;50.838;7.214;2022-11-15T00:44:26;10.40;99.90
30399;DHT22;17195;50.838;7.214;2022-11-15T00:46:52;10.50;99.90
30399;DHT22;17195;50.838;7.214;2022-11-15T00:49:17;10.60;99.90
30399;DHT22;17195;50.838;7.214;2022-11-15T00:51:43;10.70;99.90
30399;DHT22;17195;50.838;7.214;2022-11-15T00:54:08;10.80;99.90
30399;DHT22;17195;50.838;7.214;2022-11-15T00:56:34;10.90;99.90
30399;DHT22;17195;50.838;7.214;2022-11-15T00:58:59;10.90;99.90
30399;DHT22;17195;50.838;7.214;2022-11-15T01:01:25;10.90;99.90
30399;DHT22;17195;50.838;7.214;2022-11-15T01:03:50;10.80;99.90
30399;DHT22;17195;50.838;7.214;2022-11-15T01:06:16;10.70;99.90
30399;DHT22;17195;50.838;7.214;2022-11-15T01:08:41;10.70;99.90
30399;DHT22;17195;50.838;7.214;2022-11-15T01:11:10;10.60;99.90
30399;DHT22;17195;50.838;7.214;2022-11-15T01:13:37;10.60;99.90
30399;DHT22;17195;50.838;7.214;2022-11-15T01:16:12;10.50;99.90
30399;DHT22;17195;50.838;7.214;2022-11-15T01:18:39;10.50;99.90
30399;DHT22;17195;50.838;7.214;2022-11-15T01:21:09;10.50;99.90
30399;DHT22;17195;50.838;7.214;2022-11-15T01:23:35;10.50;99.90
30399;DHT22;17195;50.838;7.214;2022-11-15T01:26:02;10.60;99.90
30399;DHT22;17195;50.838;7.214;2022-11-15T01:28:32;10.70;99.90
30399;DHT22;17195;50.838;7.214;2022-11-15T01:31:02;10.90;99.90
30399;DHT22;17195;50.838;7.214;2022-11-15T01:33:28;11.10;99.90
30399;DHT22;17195;50.838;7.214;2022-11-15T01:35:54;11.20;99.90
30399;DHT22;17195;50.838;7.214;2022-11-15T01:38:20;11.30;99.90
30399;DHT22;17195;50.838;7.214;2022-11-15T01:40:46;11.40;99.90
30399;DHT22;17195;50.838;7.214;2022-11-15T01:43:36;11.50;99.90
30399;DHT22;17195;50.838;7.214;2022-11-15T01:46:22;11.60;99.90
30399;DHT22;17195;50.838;7.214;2022-11-15T01:48:51;11.70;99.90
30399;DHT22;17195;50.838;7.214;2022-11-15T01:51:20;11.70;99.90
30399;DHT22;17195;50.838;7.214;2022-11-15T01:53:50;11.80;99.90
30399;DHT22;17195;50.838;7.214;2022-11-15T01:56:20;11.80;99.90
30399;DHT22;17195;50.838;7.214;2022-11-15T01:58:47;11.80;99.90
30399;DHT22;17195;50.838;7.214;2022-11-15T02:01:13;11.80;99.90
30399;DHT22;17195;50.838;7.214;2022-11-15T02:03:56;11.80;99.90
30399;DHT22;17195;50.838;7.214;2022-11-15T02:06:23;11.80;99.90
30399;DHT22;17195;50.838;7.214;2022-11-15T02:08:50;11.90;99.90
30399;DHT22;17195;50.838;7.214;2022-11-15T02:11:16;11.90;99.90
30399;DHT22;17195;50.838;7.214;2022-11-15T02:13:42;12.00;99.90
30399;DHT22;17195;50.838;7.214;2022-11-15T02:19:12;12.10;99.90
30399;DHT22;17195;50.838;7.214;2022-11-15T02:27:42;12.20;99.90
30399;DHT22;17195;50.838;7.214;2022-11-15T02:30:23;12.30;99.90
30399;DHT22;17195;50.838;7.214;2022-11-15T02:32:54;12.30;99.90
30399;DHT22;17195;50.838;7.214;2022-11-15T02:35:34;12.30;99.90
30399;DHT22;17195;50.838;7.214;2022-11-15T02:38:17;12.30;99.90
30399;DHT22;17195;50.838;7.214;2022-11-15T02:41:20;12.30;99.90
30399;DHT22;17195;50.838;7.214;2022-11-15T02:46:33;12.30;99.90
30399;DHT22;17195;50.838;7.214;2022-11-15T02:49:19;12.30;99.90
30399;DHT22;17195;50.838;7.214;2022-11-15T02:51:47;12.40;99.90
30399;DHT22;17195;50.838;7.214;2022-11-15T02:54:21;12.40;99.90
30399;DHT22;17195;50.838;7.214;2022-11-15T02:56:48;12.40;99.90
30399;DHT22;17195;50.838;7.214;2022-11-15T03:02:06;12.30;99.90
30399;DHT22;17195;50.838;7.214;2022-11-15T03:04:49;12.40;99.90
30399;DHT22;17195;50.838;7.214;2022-11-15T03:07:35;12.40;99.90
30399;DHT22;17195;50.838;7.214;2022-11-15T03:10:10;12.40;99.90
30399;DHT22;17195;50.838;7.214;2022-11-15T03:12:57;12.40;99.90
30399;DHT22;17195;50.838;7.214;2022-11-15T03:15:31;12.40;99.90
30399;DHT22;17195;50.838;7.214;2022-11-15T03:18:21;12.40;99.90
30399;DHT22;17195;50.838;7.214;2022-11-15T03:20:50;12.50;99.90
30399;DHT22;17195;50.838;7.214;2022-11-15T03:23:17;12.50;99.90
30399;DHT22;17195;50.838;7.214;2022-11-15T03:25:46;12.50;99.90
30399;DHT22;17195;50.838;7.214;2022-11-15T03:28:16;12.50;99.90
30399;DHT22;17195;50.838;7.214;2022-11-15T03:30:44;12.50;99.90
30399;DHT22;17195;50.838;7.214;2022-11-15T03:33:11;12.50;99.90
30399;DHT22;17195;50.838;7.214;2022-11-15T03:35:43;12.60;99.90
30399;DHT22;17195;50.838;7.214;2022-11-15T03:38:26;12.60;99.90
30399;DHT22;17195;50.838;7.214;2022-11-15T03:40:59;12.60;99.90
30399;DHT22;17195;50.838;7.214;2022-11-15T03:46:39;12.60;99.90
30399;DHT22;17195;50.838;7.214;2022-11-15T03:49:11;12.60;99.90
30399;DHT22;17195;50.838;7.214;2022-11-15T03:51:39;12.70;99.90
30399;DHT22;17195;50.838;7.214;2022-11-15T03:54:05;12.70;99.90
30399;DHT22;17195;50.838;7.214;2022-11-15T03:56:30;12.70;99.90
30399;DHT22;17195;50.838;7.214;2022-11-15T03:58:56;12.70;99.90
30399;DHT22;17195;50.838;7.214;2022-11-15T04:01:21;12.70;99.90
30399;DHT22;17195;50.838;7.214;2022-11-15T04:03:47;12.70;99.90
30399;DHT22;17195;50.838;7.214;2022-11-15T04:06:12;12.70;99.90
30399;DHT22;17195;50.838;7.214;2022-11-15T04:08:38;12.70;99.90
30399;DHT22;17195;50.838;7.214;2022-11-15T04:11:03;12.70;99.90
30399;DHT22;17195;50.838;7.214;2022-11-15T04:13:29;12.70;99.90
30399;DHT22;17195;50.838;7.214;2022-11-15T04:15:54;12.70;99.90
30399;DHT22;17195;50.838;7.214;2022-11-15T04:18:20;12.70;99.90
30399;DHT22;17195;50.838;7.214;2022-11-15T04:20:45;12.70;99.90
30399;DHT22;17195;50.838;7.214;2022-11-15T04:23:30;12.70;99.90
30399;DHT22;17195;50.838;7.214;2022-11-15T04:26:19;12.70;99.90
30399;DHT22;17195;50.838;7.214;2022-11-15T04:28:46;12.60;99.90
30399;DHT22;17195;50.838;7.214;2022-11-15T04:31:30;12.50;99.90
30399;DHT22;17195;50.838;7.214;2022-11-15T04:33:55;12.50;99.90
30399;DHT22;17195;50.838;7.214;2022-11-15T04:36:21;12.50;99.90
30399;DHT22;17195;50.838;7.214;2022-11-15T04:39:06;12.50;99.90
30399;DHT22;17195;50.838;7.214;2022-11-15T04:41:31;12.50;99.90
30399;DHT22;17195;50.838;7.214;2022-11-15T04:43:57;12.50;99.90
30399;DHT22;17195;50.838;7.214;2022-11-15T04:46:23;12.40;99.90
30399;DHT22;17195;50.838;7.214;2022-11-15T04:48:49;12.30;99.90
30399;DHT22;17195;50.838;7.214;2022-11-15T04:51:15;12.20;99.90
30399;DHT22;17195;50.838;7.214;2022-11-15T04:53:40;12.20;99.90
30399;DHT22;17195;50.838;7.214;2022-11-15T04:56:06;12.20;99.90
30399;DHT22;17195;50.838;7.214;2022-11-15T04:58:31;12.10;99.90
30399;DHT22;17195;50.838;7.214;2022-11-15T05:00:57;12.10;99.90
30399;DHT22;17195;50.838;7.214;2022-11-15T05:03:22;12.10;99.90
30399;DHT22;17195;50.838;7.214;2022-11-15T05:06:07;12.10;99.90
30399;DHT22;17195;50.838;7.214;2022-11-15T05:08:32;12.10;99.90
30399;DHT22;17195;50.838;7.214;2022-11-15T05:10:58;12.10;99.90
30399;DHT22;17195;50.838;7.214;2022-11-15T05:13:24;12.10;99.90
30399;DHT22;17195;50.838;7.214;2022-11-15T05:15:49;12.20;99.90
30399;DHT22;17195;50.838;7.214;2022-11-15T05:18:15;12.30;99.90
30399;DHT22;17195;50.838;7.214;2022-11-15T05:20:40;12.30;99.90
30399;DHT22;17195;50.838;7.214;2022-11-15T05:23:06;12.40;99.90
30399;DHT22;17195;50.838;7.214;2022-11-15T05:25:32;12.40;99.90
30399;DHT22;17195;50.838;7.214;2022-11-15T05:27:57;12.40;99.90
30399;DHT22;17195;50.838;7.214;2022-11-15T05:30:23;12.40;99.90
30399;DHT22;17195;50.838;7.214;2022-11-15T05:32:49;12.40;99.90
30399;DHT22;17195;50.838;7.214;2022-11-15T05:35:37;12.20;99.90
30399;DHT22;17195;50.838;7.214;2022-11-15T05:38:04;12.20;99.90
30399;DHT22;17195;50.838;7.214;2022-11-15T05:40:30;12.10;99.90
30399;DHT22;17195;50.838;7.214;2022-11-15T05:42:57;12.00;99.90
30399;DHT22;17195;50.838;7.214;2022-11-15T05:45:24;11.90;99.90
30399;DHT22;17195;50.838;7.214;2022-11-15T05:47:50;11.90;99.90
30399;DHT22;17195;50.838;7.214;2022-11-15T05:50:18;11.90;99.90
30399;DHT22;17195;50.838;7.214;2022-11-15T05:52:45;11.80;99.90
30399;DHT22;17195;50.838;7.214;2022-11-15T05:55:11;11.70;99.90
30399;DHT22;17195;50.838;7.214;2022-11-15T05:57:37;11.60;99.90
30399;DHT22;17195;50.838;7.214;2022-11-15T06:00:04;11.60;99.90
30399;DHT22;17195;50.838;7.214;2022-11-15T06:02:29;11.60;99.90
30399;DHT22;17195;50.838;7.214;2022-11-15T06:04:55;11.50;99.90
30399;DHT22;17195;50.838;7.214;2022-11-15T06:07:21;11.50;99.90
30399;DHT22;17195;50.838;7.214;2022-11-15T06:09:47;11.50;99.90
30399;DHT22;17195;50.838;7.214;2022-11-15T06:12:13;11.40;99.90
30399;DHT22;17195;50.838;7.214;2022-11-15T06:14:38;11.30;99.90
30399;DHT22;17195;50.838;7.214;2022-11-15T06:17:04;11.30;99.90
30399;DHT22;17195;50.838;7.214;2022-11-15T06:19:29;11.20;99.90
30399;DHT22;17195;50.838;7.214;2022-11-15T06:21:59;11.30;99.90
30399;DHT22;17195;50.838;7.214;2022-11-15T06:24:25;11.20;99.90
30399;DHT22;17195;50.838;7.214;2022-11-15T06:26:50;11.20;99.90
30399;DHT22;17195;50.838;7.214;2022-11-15T06:29:16;11.20;99.90
30399;DHT22;17195;50.838;7.214;2022-11-15T06:31:41;11.20;99.90
30399;DHT22;17195;50.838;7.214;2022-11-15T06:34:07;11.20;99.90
30399;DHT22;17195;50.838;7.214;2022-11-15T06:36:35;11.10;99.90
30399;DHT22;17195;50.838;7.214;2022-11-15T06:39:01;11.10;99.90
30399;DHT22;17195;50.838;7.214;2022-11-15T06:41:27;11.10;99.90
30399;DHT22;17195;50.838;7.214;2022-11-15T06:43:52;11.10;99.90
30399;DHT22;17195;50.838;7.214;2022-11-15T06:46:18;11.00;99.90
30399;DHT22;17195;50.838;7.214;2022-11-15T06:48:43;11.00;99.90
30399;DHT22;17195;50.838;7.214;2022-11-15T06:51:09;10.90;99.90
30399;DHT22;17195;50.838;7.214;2022-11-15T06:53:35;10.90;99.90
30399;DHT22;17195;50.838;7.214;2022-11-15T06:56:02;10.80;99.90
30399;DHT22;17195;50.838;7.214;2022-11-15T06:58:28;10.80;99.90
30399;DHT22;17195;50.838;7.214;2022-11-15T07:00:58;10.90;99.90
30399;DHT22;17195;50.838;7.214;2022-11-15T07:03:24;10.90;99.90
30399;DHT22;17195;50.838;7.214;2022-11-15T07:05:56;10.90;99.90
30399;DHT22;17195;50.838;7.214;2022-11-15T07:08:23;10.90;99.90
30399;DHT22;17195;50.838;7.214;2022-11-15T07:10:48;10.90;99.90
30399;DHT22;17195;50.838;7.214;2022-11-15T07:13:14;10.90;99.90
30399;DHT22;17195;50.838;7.214;2022-11-15T07:15:40;10.90;99.90
30399;DHT22;17195;50.838;7.214;2022-11-15T07:18:05;10.90;99.90
30399;DHT22;17195;50.838;7.214;2022-11-15T07:20:31;10.90;99.90
30399;DHT22;17195;50.838;7.214;2022-11-15T07:23:00;10.90;99.90
30399;DHT22;17195;50.838;7.214;2022-11-15T07:25:26;10.90;99.90
30399;DHT22;17195;50.838;7.214;2022-11-15T07:27:56;10.90;99.90
30399;DHT22;17195;50.838;7.214;2022-11-15T07:30:22;10.90;99.90
30399;DHT22;17195;50.838;7.214;2022-11-15T07:32:51;11.00;99.90
30399;DHT22;17195;50.838;7.214;2022-11-15T07:35:17;10.90;99.90
30399;DHT22;17195;50.838;7.214;2022-11-15T07:37:42;11.00;99.90
30399;DHT22;17195;50.838;7.214;2022-11-15T07:40:08;11.00;99.90
30399;DHT22;17195;50.838;7.214;2022-11-15T07:42:34;11.00;99.90
30399;DHT22;17195;50.838;7.214;2022-11-15T07:45:18;11.00;99.90
30399;DHT22;17195;50.838;7.214;2022-11-15T07:47:47;11.10;99.90
30399;DHT22;17195;50.838;7.214;2022-11-15T07:50:13;11.10;99.90
30399;DHT22;17195;50.838;7.214;2022-11-15T07:52:39;11.10;99.90
30399;DHT22;17195;50.838;7.214;2022-11-15T07:55:05;11.20;99.90
30399;DHT22;17195;50.838;7.214;2022-11-15T07:57:30;11.20;99.90
30399;DHT22;17195;50.838;7.214;2022-11-15T07:59:56;11.40;99.90
30399;DHT22;17195;50.838;7.214;2022-11-15T08:02:22;11.40;99.90
30399;DHT22;17195;50.838;7.214;2022-11-15T08:04:47;11.50;99.90
30399;DHT22;17195;50.838;7.214;2022-11-15T08:07:13;11.50;99.90
30399;DHT22;17195;50.838;7.214;2022-11-15T08:09:38;11.60;99.90
30399;DHT22;17195;50.838;7.214;2022-11-15T08:12:04;11.60;99.90
30399;DHT22;17195;50.838;7.214;2022-11-15T08:14:30;11.60;99.90
30399;DHT22;17195;50.838;7.214;2022-11-15T08:16:55;11.70;99.90
30399;DHT22;17195;50.838;7.214;2022-11-15T08:19:21;11.70;99.90
30399;DHT22;17195;50.838;7.214;2022-11-15T08:21:46;11.70;99.90
30399;DHT22;17195;50.838;7.214;2022-11-15T08:24:12;11.80;99.90
30399;DHT22;17195;50.838;7.214;2022-11-15T08:26:38;11.80;99.90
30399;DHT22;17195;50.838;7.214;2022-11-15T08:29:03;11.80;99.90
30399;DHT22;17195;50.838;7.214;2022-11-15T08:31:29;11.90;99.90
30399;DHT22;17195;50.838;7.214;2022-11-15T08:33:54;11.90;99.90
30399;DHT22;17195;50.838;7.214;2022-11-15T08:36:20;11.90;99.90
30399;DHT22;17195;50.838;7.214;2022-11-15T08:38:46;11.90;99.90
30399;DHT22;17195;50.838;7.214;2022-11-15T08:41:33;12.00;99.90
30399;DHT22;17195;50.838;7.214;2022-11-15T08:44:01;12.00;99.90
30399;DHT22;17195;50.838;7.214;2022-11-15T08:46:26;12.10;99.90
30399;DHT22;17195;50.838;7.214;2022-11-15T08:48:52;12.10;99.90
30399;DHT22;17195;50.838;7.214;2022-11-15T08:51:17;12.10;99.90
30399;DHT22;17195;50.838;7.214;2022-11-15T08:53:43;12.20;99.90
30399;DHT22;17195;50.838;7.214;2022-11-15T08:56:10;12.30;99.90
30399;DHT22;17195;50.838;7.214;2022-11-15T08:58:36;12.40;99.90
30399;DHT22;17195;50.838;7.214;2022-11-15T09:01:02;12.40;99.90
30399;DHT22;17195;50.838;7.214;2022-11-15T09:03:28;12.50;99.90
30399;DHT22;17195;50.838;7.214;2022-11-15T09:05:55;12.60;99.90
30399;DHT22;17195;50.838;7.214;2022-11-15T09:08:20;12.70;99.90
30399;DHT22;17195;50.838;7.214;2022-11-15T09:10:46;12.70;99.90
30399;DHT22;17195;50.838;7.214;2022-11-15T09:13:11;12.80;99.90
30399;DHT22;17195;50.838;7.214;2022-11-15T09:15:37;12.80;99.90
30399;DHT22;17195;50.838;7.214;2022-11-15T09:18:03;12.80;99.90
30399;DHT22;17195;50.838;7.214;2022-11-15T09:20:28;12.90;99.90
30399;DHT22;17195;50.838;7.214;2022-11-15T09:22:54;13.00;99.90
30399;DHT22;17195;50.838;7.214;2022-11-15T09:25:19;13.10;99.90
30399;DHT22;17195;50.838;7.214;2022-11-15T09:27:45;13.20;99.90
30399;DHT22;17195;50.838;7.214;2022-11-15T09:30:10;13.30;99.90
30399;DHT22;17195;50.838;7.214;2022-11-15T09:32:36;13.30;99.90
30399;DHT22;17195;50.838;7.214;2022-11-15T09:35:02;13.30;99.90
30399;DHT22;17195;50.838;7.214;2022-11-15T09:37:28;13.40;99.90
30399;DHT22;17195;50.838;7.214;2022-11-15T09:39:53;13.50;99.90
30399;DHT22;17195;50.838;7.214;2022-11-15T09:43:01;13.60;99.90
30399;DHT22;17195;50.838;7.214;2022-11-15T09:48:52;13.70;99.90
30399;DHT22;17195;50.838;7.214;2022-11-15T09:51:45;13.80;99.90
30399;DHT22;17195;50.838;7.214;2022-11-15T09:57:28;13.90;99.90
30399;DHT22;17195;50.838;7.214;2022-11-15T10:00:08;14.00;99.90
30399;DHT22;17195;50.838;7.214;2022-11-15T10:05:18;14.10;99.90
30399;DHT22;17195;50.838;7.214;2022-11-15T10:08:20;14.10;99.90
30399;DHT22;17195;50.838;7.214;2022-11-15T10:10:53;14.20;99.90
30399;DHT22;17195;50.838;7.214;2022-11-15T10:13:34;14.20;99.90
30399;DHT22;17195;50.838;7.214;2022-11-15T10:21:20;14.20;99.90
30399;DHT22;17195;50.838;7.214;2022-11-15T10:23:46;14.30;99.90
30399;DHT22;17195;50.838;7.214;2022-11-15T10:26:15;14.30;99.90
30399;DHT22;17195;50.838;7.214;2022-11-15T10:28:41;14.40;99.90
30399;DHT22;17195;50.838;7.214;2022-11-15T10:31:25;14.40;99.90
30399;DHT22;17195;50.838;7.214;2022-11-15T10:33:59;14.40;99.90
30399;DHT22;17195;50.838;7.214;2022-11-15T10:36:35;14.50;99.90
30399;DHT22;17195;50.838;7.214;2022-11-15T10:39:03;14.50;99.90
30399;DHT22;17195;50.838;7.214;2022-11-15T10:46:28;14.70;99.90
30399;DHT22;17195;50.838;7.214;2022-11-15T10:51:42;14.80;99.90
30399;DHT22;17195;50.838;7.214;2022-11-15T10:54:10;14.80;99.90
30399;DHT22;17195;50.838;7.214;2022-11-15T10:56:37;14.80;99.90
30399;DHT22;17195;50.838;7.214;2022-11-15T10:59:03;14.80;99.90
30399;DHT22;17195;50.838;7.214;2022-11-15T11:01:28;14.80;99.90
30399;DHT22;17195;50.838;7.214;2022-11-15T11:04:04;14.80;99.90
30399;DHT22;17195;50.838;7.214;2022-11-15T11:06:31;14.90;99.90
30399;DHT22;17195;50.838;7.214;2022-11-15T11:11:49;14.80;99.90
30399;DHT22;17195;50.838;7.214;2022-11-15T11:14:24;14.80;99.90
30399;DHT22;17195;50.838;7.214;2022-11-15T11:16:55;14.90;99.90
30399;DHT22;17195;50.838;7.214;2022-11-15T11:25:40;15.10;99.90
30399;DHT22;17195;50.838;7.214;2022-11-15T11:28:42;15.20;99.90
30399;DHT22;17195;50.838;7.214;2022-11-15T11:34:00;15.30;99.90
30399;DHT22;17195;50.838;7.214;2022-11-15T11:42:26;15.40;99.90
30399;DHT22;17195;50.838;7.214;2022-11-15T11:50:38;15.60;99.90
30399;DHT22;17195;50.838;7.214;2022-11-15T11:53:12;15.70;99.90
30399;DHT22;17195;50.838;7.214;2022-11-15T11:55:56;15.70;99.90
30399;DHT22;17195;50.838;7.214;2022-11-15T11:58:43;15.80;99.90
30399;DHT22;17195;50.838;7.214;2022-11-15T12:03:45;16.00;99.90
30399;DHT22;17195;50.838;7.214;2022-11-15T12:06:33;16.00;99.90
30399;DHT22;17195;50.838;7.214;2022-11-15T12:09:06;16.00;99.90
30399;DHT22;17195;50.838;7.214;2022-11-15T12:14:32;16.00;99.90
30399;DHT22;17195;50.838;7.214;2022-11-15T12:16:58;16.00;99.90
30399;DHT22;17195;50.838;7.214;2022-11-15T12:19:24;16.00;99.90
30399;DHT22;17195;50.838;7.214;2022-11-15T12:22:00;16.10;99.90
30399;DHT22;17195;50.838;7.214;2022-11-15T12:24:56;16.10;99.90
30399;DHT22;17195;50.838;7.214;2022-11-15T12:30:10;16.20;99.90
30399;DHT22;17195;50.838;7.214;2022-11-15T12:32:38;16.30;99.90
30399;DHT22;17195;50.838;7.214;2022-11-15T12:35:34;16.30;99.90
30399;DHT22;17195;50.838;7.214;2022-11-15T12:38:00;16.30;99.90
30399;DHT22;17195;50.838;7.214;2022-11-15T12:40:30;16.30;99.90
30399;DHT22;17195;50.838;7.214;2022-11-15T12:44:05;16.40;99.90
30399;DHT22;17195;50.838;7.214;2022-11-15T12:59:54;16.30;99.90
30399;DHT22;17195;50.838;7.214;2022-11-15T13:02:29;16.20;99.90
30399;DHT22;17195;50.838;7.214;2022-11-15T13:17:50;16.20;99.90
30399;DHT22;17195;50.838;7.214;2022-11-15T13:22:47;16.20;99.90
30399;DHT22;17195;50.838;7.214;2022-11-15T13:30:51;16.40;99.90
30399;DHT22;17195;50.838;7.214;2022-11-15T13:33:28;16.50;99.90
30399;DHT22;17195;50.838;7.214;2022-11-15T13:35:57;16.50;99.90
30399;DHT22;17195;50.838;7.214;2022-11-15T13:38:38;16.50;99.90
30399;DHT22;17195;50.838;7.214;2022-11-15T13:41:34;16.40;99.90
30399;DHT22;17195;50.838;7.214;2022-11-15T13:44:01;16.40;99.90
30399;DHT22;17195;50.838;7.214;2022-11-15T13:46:29;16.40;99.90
30399;DHT22;17195;50.838;7.214;2022-11-15T13:49:03;16.40;99.90
30399;DHT22;17195;50.838;7.214;2022-11-15T13:56:42;16.00;99.90
30399;DHT22;17195;50.838;7.214;2022-11-15T13:59:19;15.90;99.90
30399;DHT22;17195;50.838;7.214;2022-11-15T14:01:46;15.90;99.90
30399;DHT22;17195;50.838;7.214;2022-11-15T14:04:14;15.80;99.90
30399;DHT22;17195;50.838;7.214;2022-11-15T14:06:52;15.80;99.90
30399;DHT22;17195;50.838;7.214;2022-11-15T14:11:56;15.70;99.90
30399;DHT22;17195;50.838;7.214;2022-11-15T14:14:23;15.60;99.90
30399;DHT22;17195;50.838;7.214;2022-11-15T14:16:57;15.60;99.90
30399;DHT22;17195;50.838;7.214;2022-11-15T14:24:44;15.50;99.90
30399;DHT22;17195;50.838;7.214;2022-11-15T14:27:25;15.40;99.90
30399;DHT22;17195;50.838;7.214;2022-11-15T14:29:52;15.40;99.90
30399;DHT22;17195;50.838;7.214;2022-11-15T14:34:45;15.30;99.90
30399;DHT22;17195;50.838;7.214;2022-11-15T14:37:25;15.30;99.90
30399;DHT22;17195;50.838;7.214;2022-11-15T14:39:52;15.30;99.90
30399;DHT22;17195;50.838;7.214;2022-11-15T14:42:18;15.20;99.90
30399;DHT22;17195;50.838;7.214;2022-11-15T14:44:44;15.20;99.90
30399;DHT22;17195;50.838;7.214;2022-11-15T14:47:10;15.10;99.90
30399;DHT22;17195;50.838;7.214;2022-11-15T14:49:35;15.10;99.90
30399;DHT22;17195;50.838;7.214;2022-11-15T14:52:01;15.00;99.90
30399;DHT22;17195;50.838;7.214;2022-11-15T14:54:26;15.00;99.90
30399;DHT22;17195;50.838;7.214;2022-11-15T14:56:52;15.00;99.90
30399;DHT22;17195;50.838;7.214;2022-11-15T14:59:17;15.00;99.90
30399;DHT22;17195;50.838;7.214;2022-11-15T15:01:43;15.00;99.90
30399;DHT22;17195;50.838;7.214;2022-11-15T15:04:10;15.00;99.90
30399;DHT22;17195;50.838;7.214;2022-11-15T15:06:35;15.00;99.90
30399;DHT22;17195;50.838;7.214;2022-11-15T15:09:02;14.90;99.90
30399;DHT22;17195;50.838;7.214;2022-11-15T15:11:29;14.90;99.90
30399;DHT22;17195;50.838;7.214;2022-11-15T15:13:55;14.90;99.90
30399;DHT22;17195;50.838;7.214;2022-11-15T15:16:26;14.80;99.90
30399;DHT22;17195;50.838;7.214;2022-11-15T15:18:52;14.80;99.90
30399;DHT22;17195;50.838;7.214;2022-11-15T15:21:26;14.70;99.90
30399;DHT22;17195;50.838;7.214;2022-11-15T15:23:56;14.80;99.90
30399;DHT22;17195;50.838;7.214;2022-11-15T15:26:23;14.70;99.90
30399;DHT22;17195;50.838;7.214;2022-11-15T15:28:49;14.70;99.90
30399;DHT22;17195;50.838;7.214;2022-11-15T15:31:16;14.70;99.90
30399;DHT22;17195;50.838;7.214;2022-11-15T15:33:42;14.60;99.90
30399;DHT22;17195;50.838;7.214;2022-11-15T15:36:16;14.70;99.90
30399;DHT22;17195;50.838;7.214;2022-11-15T15:38:42;14.60;99.90
30399;DHT22;17195;50.838;7.214;2022-11-15T15:41:10;14.50;99.90
30399;DHT22;17195;50.838;7.214;2022-11-15T15:43:36;14.50;99.90
30399;DHT22;17195;50.838;7.214;2022-11-15T15:46:01;14.50;99.90
30399;DHT22;17195;50.838;7.214;2022-11-15T15:48:27;14.40;99.90
30399;DHT22;17195;50.838;7.214;2022-11-15T15:50:52;14.40;99.90
30399;DHT22;17195;50.838;7.214;2022-11-15T15:53:18;14.30;99.90
30399;DHT22;17195;50.838;7.214;2022-11-15T15:55:44;14.30;99.90
30399;DHT22;17195;50.838;7.214;2022-11-15T15:58:09;14.30;99.90
30399;DHT22;17195;50.838;7.214;2022-11-15T16:00:35;14.20;99.90
30399;DHT22;17195;50.838;7.214;2022-11-15T16:03:01;14.20;99.90
30399;DHT22;17195;50.838;7.214;2022-11-15T16:05:26;14.10;99.90
30399;DHT22;17195;50.838;7.214;2022-11-15T16:07:52;14.10;99.90
30399;DHT22;17195;50.838;7.214;2022-11-15T16:10:24;14.10;99.90
30399;DHT22;17195;50.838;7.214;2022-11-15T16:12:53;14.10;99.90
30399;DHT22;17195;50.838;7.214;2022-11-15T16:15:20;14.20;99.90
30399;DHT22;17195;50.838;7.214;2022-11-15T16:17:54;14.10;99.90
30399;DHT22;17195;50.838;7.214;2022-11-15T16:20:39;14.10;99.90
30399;DHT22;17195;50.838;7.214;2022-11-15T16:23:09;14.10;99.90
30399;DHT22;17195;50.838;7.214;2022-11-15T16:25:58;14.10;99.90
30399;DHT22;17195;50.838;7.214;2022-11-15T16:28:32;14.00;99.90
30399;DHT22;17195;50.838;7.214;2022-11-15T16:31:10;14.00;99.90
30399;DHT22;17195;50.838;7.214;2022-11-15T16:33:36;14.00;99.90
30399;DHT22;17195;50.838;7.214;2022-11-15T16:36:03;14.00;99.90
30399;DHT22;17195;50.838;7.214;2022-11-15T16:38:29;14.10;99.90
30399;DHT22;17195;50.838;7.214;2022-11-15T16:40:54;14.00;99.90
30399;DHT22;17195;50.838;7.214;2022-11-15T16:43:20;14.00;99.90
30399;DHT22;17195;50.838;7.214;2022-11-15T16:45:46;14.00;99.90
30399;DHT22;17195;50.838;7.214;2022-11-15T16:48:23;14.00;99.90
30399;DHT22;17195;50.838;7.214;2022-11-15T16:50:49;14.00;99.90
30399;DHT22;17195;50.838;7.214;2022-11-15T16:53:15;14.00;99.90
30399;DHT22;17195;50.838;7.214;2022-11-15T16:55:40;14.00;99.90
30399;DHT22;17195;50.838;7.214;2022-11-15T16:58:08;14.00;99.90
30399;DHT22;17195;50.838;7.214;2022-11-15T17:00:34;14.00;99.90
30399;DHT22;17195;50.838;7.214;2022-11-15T17:02:59;13.90;99.90
30399;DHT22;17195;50.838;7.214;2022-11-15T17:05:25;13.90;99.90
30399;DHT22;17195;50.838;7.214;2022-11-15T17:07:52;13.90;99.90
30399;DHT22;17195;50.838;7.214;2022-11-15T17:10:20;13.90;99.90
30399;DHT22;17195;50.838;7.214;2022-11-15T17:12:45;13.90;99.90
30399;DHT22;17195;50.838;7.214;2022-11-15T17:15:12;13.90;99.90
30399;DHT22;17195;50.838;7.214;2022-11-15T17:17:38;13.80;99.90
30399;DHT22;17195;50.838;7.214;2022-11-15T17:20:04;13.80;99.90
30399;DHT22;17195;50.838;7.214;2022-11-15T17:22:35;13.80;99.90
30399;DHT22;17195;50.838;7.214;2022-11-15T17:25:00;13.80;99.90
30399;DHT22;17195;50.838;7.214;2022-11-15T17:27:26;13.70;99.90
30399;DHT22;17195;50.838;7.214;2022-11-15T17:29:51;13.80;99.90
30399;DHT22;17195;50.838;7.214;2022-11-15T17:32:17;13.80;99.90
30399;DHT22;17195;50.838;7.214;2022-11-15T17:34:42;13.80;99.90
30399;DHT22;17195;50.838;7.214;2022-11-15T17:37:08;13.80;99.90
30399;DHT22;17195;50.838;7.214;2022-11-15T17:39:34;13.80;99.90
30399;DHT22;17195;50.838;7.214;2022-11-15T17:41:59;13.70;99.90
30399;DHT22;17195;50.838;7.214;2022-11-15T17:44:25;13.80;99.90